Ashford, Alabama
Current Conditions -  °F | °C
As of 9:53 PM on Wednesday 28 Jan 2015 (Local Time) from KDHN Reporting Station
Clear Clear  
Wind Chill: 39°   Ceiling: Unl
Heat Index: 42°   Visibility: 10mi
Dew Point: 34°   Wind: 5mph
Humidity: 73%   Direction: 130°SE
Pressure: 30.31"   Gusts: NA
Location:  31.18°N, 85.24°W
Report Text: KDHN 290353Z AUTO 13004KT 10SM CLR 06/01 A3031 RMK AO2 SLP265 T00560011
Loading
Personal Weather Stations






























Interactive Weather Map New forecast layout! Learn more

10-Day Weather Forecast

Advertisements
Track Severe Weather on mobile